createdAt,value
2017-11-25T00:00:01.013Z,10.05
2017-11-25T00:02:27.632Z,6.78
2017-11-25T00:04:54.255Z,7.32
2017-11-25T00:07:20.868Z,7.93
2017-11-25T00:09:47.601Z,8.18
2017-11-25T00:12:14.215Z,8.88
2017-11-25T00:14:40.830Z,7.97
2017-11-25T00:17:07.451Z,8.18
2017-11-25T00:19:34.050Z,7.30
2017-11-25T00:22:00.686Z,9.73
2017-11-25T00:24:27.320Z,12.93
2017-11-25T00:26:53.933Z,7.32
2017-11-25T00:29:20.557Z,11.18
2017-11-25T00:31:47.240Z,7.68
2017-11-25T00:34:13.852Z,7.93
2017-11-25T00:36:40.475Z,7.68
2017-11-25T00:39:07.074Z,7.00
2017-11-25T00:41:33.791Z,9.57
2017-11-25T00:44:00.477Z,7.00
2017-11-25T00:46:27.097Z,5.85
2017-11-25T00:48:53.703Z,6.05
2017-11-25T00:51:20.323Z,4.78
2017-11-25T00:53:46.999Z,6.05
2017-11-25T00:56:13.620Z,5.35
2017-11-25T00:58:40.247Z,5.50
2017-11-25T01:01:06.853Z,4.35
2017-11-25T01:03:33.550Z,5.10
2017-11-25T01:06:00.170Z,5.28
2017-11-25T01:08:26.832Z,5.00
2017-11-25T01:10:53.448Z,7.57
2017-11-25T01:13:20.072Z,5.53
2017-11-25T01:15:46.680Z,4.85
2017-11-25T01:18:13.274Z,6.03
2017-11-25T01:20:39.910Z,5.43
2017-11-25T01:23:06.555Z,4.47
2017-11-25T01:25:33.165Z,5.55
2017-11-25T01:27:59.834Z,6.68
2017-11-25T01:30:26.486Z,7.60
2017-11-25T01:32:53.099Z,7.32
2017-11-25T01:35:19.724Z,5.97
2017-11-25T01:37:46.392Z,5.87
2017-11-25T01:40:12.995Z,5.68
2017-11-25T01:42:39.670Z,5.78
2017-11-25T01:45:06.311Z,5.65
2017-11-25T01:47:32.951Z,7.97
2017-11-25T01:49:59.551Z,5.40
2017-11-25T01:52:26.160Z,5.35
2017-11-25T01:54:52.780Z,6.12
2017-11-25T01:57:19.384Z,5.10
2017-11-25T01:59:46.000Z,6.95
2017-11-25T02:02:12.693Z,6.50
2017-11-25T02:04:39.295Z,6.72
2017-11-25T02:07:05.912Z,5.32
2017-11-25T02:09:32.605Z,8.40
2017-11-25T02:11:59.203Z,6.07
2017-11-25T02:14:25.819Z,5.62
2017-11-25T02:16:52.453Z,7.55
2017-11-25T02:19:19.054Z,6.25
2017-11-25T02:21:45.655Z,7.22
2017-11-25T02:24:12.348Z,5.30
2017-11-25T02:26:38.967Z,5.85
2017-11-25T02:29:06.692Z,7.25
2017-11-25T02:31:33.327Z,5.53
2017-11-25T02:34:00.023Z,6.53
2017-11-25T02:36:26.628Z,6.15
2017-11-25T02:38:53.260Z,5.87
2017-11-25T02:41:19.940Z,6.72
2017-11-25T02:43:46.577Z,6.78
2017-11-25T02:46:13.212Z,6.75
2017-11-25T02:48:39.856Z,6.20
2017-11-25T02:51:06.492Z,6.28
2017-11-25T02:53:33.109Z,4.45
2017-11-25T02:55:59.723Z,5.10
2017-11-25T02:58:26.343Z,6.03
2017-11-25T03:00:59.648Z,6.62
2017-11-25T03:03:26.277Z,9.32
2017-11-25T03:05:52.896Z,5.85
2017-11-25T03:08:19.506Z,5.40
2017-11-25T03:10:46.127Z,4.40
2017-11-25T03:13:12.744Z,25.70
2017-11-25T03:15:39.343Z,5.18
2017-11-25T03:18:05.978Z,5.10
2017-11-25T03:20:32.575Z,7.85
2017-11-25T03:22:59.188Z,4.18
2017-11-25T03:25:25.811Z,8.27
2017-11-25T03:27:52.426Z,4.05
2017-11-25T03:30:19.041Z,3.60
2017-11-25T03:32:45.721Z,2.90
2017-11-25T03:35:12.343Z,2.95
2017-11-25T03:37:38.955Z,3.20
2017-11-25T03:40:05.576Z,2.67
2017-11-25T03:42:32.175Z,2.72
2017-11-25T03:44:58.808Z,2.70
2017-11-25T03:47:25.410Z,3.00
2017-11-25T03:49:52.025Z,2.97
2017-11-25T03:52:18.659Z,4.68
2017-11-25T03:54:45.347Z,2.50
2017-11-25T03:57:12.000Z,3.78
2017-11-25T03:59:38.635Z,3.00
2017-11-25T04:02:05.266Z,2.90
2017-11-25T04:04:31.883Z,2.53
2017-11-25T04:06:58.512Z,3.75
2017-11-25T04:09:25.125Z,3.20
2017-11-25T04:11:51.728Z,3.28
2017-11-25T04:14:18.358Z,3.10
2017-11-25T04:16:44.961Z,2.87
2017-11-25T04:19:11.563Z,2.80
2017-11-25T04:21:38.196Z,5.65
2017-11-25T04:24:04.811Z,2.83
2017-11-25T04:26:31.422Z,3.28
2017-11-25T04:28:58.047Z,3.60
2017-11-25T04:31:24.646Z,4.05
2017-11-25T04:33:51.259Z,3.85
2017-11-25T04:36:17.883Z,4.00
2017-11-25T04:38:44.487Z,3.35
2017-11-25T04:41:11.092Z,4.18
2017-11-25T04:43:37.711Z,4.25
2017-11-25T04:46:04.322Z,2.72
2017-11-25T04:48:30.928Z,4.55
2017-11-25T04:50:57.543Z,3.92
2017-11-25T04:53:24.163Z,5.80
2017-11-25T04:55:50.762Z,3.60
2017-11-25T04:58:17.501Z,3.70
2017-11-25T05:00:44.107Z,4.10
2017-11-25T05:03:10.702Z,4.20
2017-11-25T05:05:37.327Z,4.18
2017-11-25T05:08:03.935Z,4.07
2017-11-25T05:10:30.543Z,4.20
2017-11-25T05:12:57.167Z,6.43
2017-11-25T05:15:23.774Z,4.97
2017-11-25T05:17:50.639Z,3.40
2017-11-25T05:20:17.980Z,5.28
2017-11-25T05:22:44.768Z,4.50
2017-11-25T05:25:11.498Z,4.10
2017-11-25T05:27:38.150Z,3.55
2017-11-25T05:30:04.764Z,3.50
2017-11-25T05:32:31.500Z,3.25
2017-11-25T05:34:58.348Z,3.53
2017-11-25T05:37:25.053Z,3.37
2017-11-25T05:39:51.668Z,3.03
2017-11-25T05:42:18.742Z,2.80
2017-11-25T05:44:46.201Z,3.47
2017-11-25T05:47:14.169Z,3.30
2017-11-25T05:49:41.115Z,3.20
2017-11-25T05:52:08.061Z,3.12
2017-11-25T05:54:34.917Z,2.83
2017-11-25T05:57:01.755Z,2.45
2017-11-25T05:59:29.107Z,2.80
2017-11-25T06:01:56.053Z,2.45
2017-11-25T06:04:23.814Z,2.72
2017-11-25T06:06:51.787Z,2.40
2017-11-25T06:09:20.490Z,2.33
2017-11-25T06:11:47.235Z,2.80
2017-11-25T06:14:13.978Z,2.80
2017-11-25T06:16:40.803Z,2.58
2017-11-25T06:19:07.505Z,3.80
2017-11-25T06:21:34.283Z,3.65
2017-11-25T06:24:01.156Z,3.20
2017-11-25T06:26:28.177Z,4.50
2017-11-25T06:28:54.807Z,2.30
2017-11-25T06:31:21.541Z,2.80
2017-11-25T06:33:48.172Z,2.25
2017-11-25T06:36:14.816Z,2.95
2017-11-25T06:38:41.854Z,4.80
2017-11-25T06:41:08.468Z,3.40
2017-11-25T06:43:35.083Z,2.40
2017-11-25T06:46:01.707Z,2.58
2017-11-25T06:48:28.315Z,2.50
2017-11-25T06:50:54.934Z,1.70
2017-11-25T06:53:21.564Z,2.20
2017-11-25T06:55:48.169Z,2.53
2017-11-25T06:58:14.777Z,2.80
2017-11-25T07:00:41.387Z,2.30
2017-11-25T07:03:08.013Z,2.20
2017-11-25T07:05:34.636Z,2.28
2017-11-25T07:08:01.241Z,2.10
2017-11-25T07:10:27.847Z,2.10
2017-11-25T07:12:54.474Z,2.00
2017-11-25T07:15:21.127Z,5.80
2017-11-25T07:17:47.862Z,2.25
2017-11-25T07:20:14.467Z,2.42
2017-11-25T07:22:41.067Z,6.95
2017-11-25T07:25:07.695Z,2.50
2017-11-25T07:27:34.297Z,2.80
2017-11-25T07:30:00.912Z,2.40
2017-11-25T07:32:27.536Z,2.75
2017-11-25T07:34:54.139Z,2.60
2017-11-25T07:37:20.751Z,2.22
2017-11-25T07:39:47.379Z,2.90
2017-11-25T07:42:13.986Z,3.08
2017-11-25T07:44:40.595Z,2.65
2017-11-25T07:47:07.216Z,2.35
2017-11-25T07:49:33.824Z,2.92
2017-11-25T07:52:00.439Z,3.17
2017-11-25T07:54:27.159Z,2.30
2017-11-25T07:56:53.759Z,2.80
2017-11-25T07:59:20.372Z,2.37
2017-11-25T08:01:47.002Z,3.53
2017-11-25T08:04:13.604Z,3.00
2017-11-25T08:06:40.212Z,2.60
2017-11-25T08:09:06.833Z,2.65
2017-11-25T08:11:33.448Z,3.00
2017-11-25T08:14:00.043Z,2.78
2017-11-25T08:16:26.664Z,3.37
2017-11-25T08:18:53.271Z,3.47
2017-11-25T08:21:19.879Z,2.50
2017-11-25T08:23:46.536Z,2.92
2017-11-25T08:26:13.147Z,2.35
2017-11-25T08:28:39.743Z,2.90
2017-11-25T08:31:06.379Z,2.87
2017-11-25T08:33:32.993Z,2.40
2017-11-25T08:35:59.600Z,2.40
2017-11-25T08:38:26.214Z,2.25
2017-11-25T08:40:52.916Z,1.80
2017-11-25T08:43:19.567Z,1.77
2017-11-25T08:45:46.183Z,2.87
2017-11-25T08:48:12.789Z,2.40
2017-11-25T08:50:39.411Z,2.42
2017-11-25T08:53:06.023Z,1.58
2017-11-25T08:55:32.719Z,1.80
2017-11-25T08:57:59.340Z,1.50
2017-11-25T09:00:25.953Z,1.60
2017-11-25T09:02:52.589Z,1.80
2017-11-25T09:05:19.290Z,1.60
2017-11-25T09:07:45.895Z,1.90
2017-11-25T09:10:12.529Z,1.60
2017-11-25T09:12:39.136Z,2.17
2017-11-25T09:15:05.749Z,1.67
2017-11-25T09:17:32.378Z,1.90
2017-11-25T09:19:59.003Z,1.80
2017-11-25T09:22:25.613Z,2.00
2017-11-25T09:24:52.241Z,1.62
2017-11-25T09:27:18.847Z,1.83
2017-11-25T09:29:45.446Z,1.73
2017-11-25T09:32:12.218Z,1.70
2017-11-25T09:34:38.952Z,2.33
2017-11-25T09:37:05.559Z,2.33
2017-11-25T09:39:32.207Z,1.80
2017-11-25T09:41:59.000Z,2.20
2017-11-25T09:44:26.309Z,2.17
2017-11-25T09:46:53.211Z,2.80
2017-11-25T09:49:20.104Z,2.33
2017-11-25T09:51:47.026Z,2.17
2017-11-25T09:54:14.035Z,2.00
2017-11-25T09:56:40.664Z,2.28
2017-11-25T09:59:07.333Z,2.10
2017-11-25T10:01:34.079Z,2.55
2017-11-25T10:04:00.823Z,2.20
2017-11-25T10:06:27.497Z,2.40
2017-11-25T10:08:54.226Z,2.53
2017-11-25T10:11:21.428Z,2.10
2017-11-25T10:13:48.143Z,2.78
2017-11-25T10:16:14.764Z,2.00
2017-11-25T10:18:41.402Z,2.42
2017-11-25T10:21:08.070Z,2.40
2017-11-25T10:23:34.691Z,2.90
2017-11-25T10:26:01.719Z,2.72
2017-11-25T10:28:29.147Z,2.45
2017-11-25T10:30:55.955Z,2.50
2017-11-25T10:33:22.656Z,3.00
2017-11-25T10:35:49.271Z,2.30
2017-11-25T10:38:15.896Z,2.40
2017-11-25T10:40:42.821Z,2.62
2017-11-25T10:43:09.451Z,2.40
2017-11-25T10:45:36.071Z,2.58
2017-11-25T10:48:02.696Z,2.60
2017-11-25T10:50:29.320Z,3.47
2017-11-25T10:52:55.930Z,3.17
2017-11-25T10:55:22.539Z,2.60
2017-11-25T10:57:49.160Z,2.95
2017-11-25T11:00:15.798Z,2.55
2017-11-25T11:02:43.279Z,2.28
2017-11-25T11:05:09.903Z,2.80
2017-11-25T11:07:36.515Z,3.12
2017-11-25T11:10:03.190Z,3.60
2017-11-25T11:12:29.816Z,2.87
2017-11-25T11:14:56.424Z,3.05
2017-11-25T11:17:23.033Z,2.90
2017-11-25T11:19:49.664Z,2.60
2017-11-25T11:22:16.271Z,3.47
2017-11-25T11:24:42.915Z,2.97
2017-11-25T11:27:09.527Z,2.65
2017-11-25T11:29:36.188Z,2.90
2017-11-25T11:32:02.811Z,2.70
2017-11-25T11:34:29.479Z,3.10
2017-11-25T11:36:56.089Z,3.28
2017-11-25T11:39:22.708Z,2.75
2017-11-25T11:41:49.330Z,2.50
2017-11-25T11:44:15.938Z,3.00
2017-11-25T11:46:42.556Z,3.03
2017-11-25T11:49:09.167Z,2.40
2017-11-25T11:51:35.882Z,3.50
2017-11-25T11:54:02.503Z,2.67
2017-11-25T11:56:29.120Z,3.10
2017-11-25T11:58:55.744Z,3.08
2017-11-25T12:01:22.366Z,3.00
2017-11-25T12:03:48.980Z,3.35
2017-11-25T12:06:15.604Z,3.67
2017-11-25T12:08:42.232Z,3.40
2017-11-25T12:11:08.830Z,3.12
2017-11-25T12:13:35.453Z,2.72
2017-11-25T12:16:02.070Z,2.70
2017-11-25T12:18:28.683Z,3.10
2017-11-25T12:20:55.328Z,3.35
2017-11-25T12:23:21.929Z,2.83
2017-11-25T12:25:48.543Z,3.08
2017-11-25T12:28:15.169Z,3.10
2017-11-25T12:30:41.863Z,3.10
2017-11-25T12:33:08.467Z,2.60
2017-11-25T12:35:35.088Z,3.40
2017-11-25T12:38:01.712Z,2.70
2017-11-25T12:40:28.315Z,3.30
2017-11-25T12:42:54.958Z,3.58
2017-11-25T12:45:21.597Z,3.33
2017-11-25T12:47:48.209Z,2.50
2017-11-25T12:50:14.831Z,3.12
2017-11-25T12:52:41.441Z,3.03
2017-11-25T12:55:08.156Z,3.12
2017-11-25T12:57:34.893Z,3.12
2017-11-25T13:00:01.500Z,3.72
2017-11-25T13:02:28.105Z,2.85
2017-11-25T13:04:54.815Z,3.45
2017-11-25T13:07:21.458Z,3.33
2017-11-25T13:09:48.066Z,3.17
2017-11-25T13:12:14.740Z,3.00
2017-11-25T13:14:41.342Z,3.37
2017-11-25T13:17:07.967Z,3.35
2017-11-25T13:19:34.643Z,3.15
2017-11-25T13:22:01.284Z,3.30
2017-11-25T13:24:27.918Z,3.83
2017-11-25T13:26:54.526Z,3.00
2017-11-25T13:29:21.128Z,2.90
2017-11-25T13:31:47.744Z,3.40
2017-11-25T13:34:14.422Z,3.62
2017-11-25T13:36:41.028Z,3.40
2017-11-25T13:39:07.660Z,3.90
2017-11-25T13:41:34.296Z,3.20
2017-11-25T13:44:00.935Z,3.45
2017-11-25T13:46:27.571Z,3.70
2017-11-25T13:48:54.171Z,3.60
2017-11-25T13:51:20.786Z,3.70
2017-11-25T13:53:47.408Z,3.70
2017-11-25T13:56:14.003Z,3.55
2017-11-25T13:58:40.619Z,3.58
2017-11-25T14:01:07.240Z,4.10
2017-11-25T14:03:34.050Z,3.20
2017-11-25T14:06:00.664Z,4.07
2017-11-25T14:08:27.279Z,3.87
2017-11-25T14:10:53.956Z,6.65
2017-11-25T14:13:20.604Z,4.12
2017-11-25T14:15:47.229Z,3.60
2017-11-25T14:18:13.851Z,3.58
2017-11-25T14:20:40.523Z,4.12
2017-11-25T14:23:07.124Z,3.72
2017-11-25T14:25:33.723Z,3.40
2017-11-25T14:28:00.344Z,4.15
2017-11-25T14:30:26.956Z,3.30
2017-11-25T14:32:53.563Z,4.12
2017-11-25T14:35:20.187Z,3.72
2017-11-25T14:37:46.891Z,3.87
2017-11-25T14:40:13.530Z,4.07
2017-11-25T14:42:40.143Z,3.83
2017-11-25T14:45:06.800Z,3.28
2017-11-25T14:47:33.419Z,3.50
2017-11-25T14:50:00.040Z,3.50
2017-11-25T14:52:26.651Z,3.35
2017-11-25T14:54:53.358Z,4.62
2017-11-25T14:57:19.967Z,3.80
2017-11-25T14:59:46.646Z,3.78
2017-11-25T15:02:13.283Z,3.60
2017-11-25T15:04:39.879Z,3.70
2017-11-25T15:07:06.478Z,3.60
2017-11-25T15:09:33.095Z,3.72
2017-11-25T15:11:59.708Z,3.35
2017-11-25T15:14:26.311Z,3.53
2017-11-25T15:16:53.012Z,3.50
2017-11-25T15:19:19.616Z,4.78
2017-11-25T15:21:46.235Z,4.03
2017-11-25T15:24:12.935Z,3.80
2017-11-25T15:26:39.544Z,3.70
2017-11-25T15:29:06.152Z,4.10
2017-11-25T15:31:32.785Z,4.62
2017-11-25T15:33:59.396Z,3.80
2017-11-25T15:36:25.997Z,4.80
2017-11-25T15:38:52.619Z,4.47
2017-11-25T15:41:19.226Z,4.43
2017-11-25T15:43:45.843Z,4.28
2017-11-25T15:46:12.456Z,3.55
2017-11-25T15:48:39.119Z,4.10
2017-11-25T15:51:05.748Z,4.20
2017-11-25T15:53:32.353Z,4.03
2017-11-25T15:55:59.031Z,4.25
2017-11-25T15:58:25.660Z,4.00
2017-11-25T16:00:52.277Z,4.25
2017-11-25T16:03:18.876Z,4.80
2017-11-25T16:05:45.604Z,4.50
2017-11-25T16:08:12.215Z,4.20
2017-11-25T16:10:38.870Z,3.90
2017-11-25T16:13:05.486Z,4.87
2017-11-25T16:15:32.097Z,4.12
2017-11-25T16:17:58.712Z,4.10
2017-11-25T16:20:25.328Z,4.70
2017-11-25T16:22:51.935Z,4.93
2017-11-25T16:25:18.556Z,5.30
2017-11-25T16:27:45.163Z,4.65
2017-11-25T16:30:11.791Z,4.75
2017-11-25T16:32:38.659Z,4.07
2017-11-25T16:35:05.292Z,4.90
2017-11-25T16:37:31.900Z,6.85
2017-11-25T16:39:58.639Z,5.50
2017-11-25T16:42:25.252Z,5.30
2017-11-25T16:44:51.973Z,5.32
2017-11-25T16:47:18.587Z,4.10
2017-11-25T16:49:45.199Z,4.62
2017-11-25T16:52:11.924Z,3.72
2017-11-25T16:54:38.859Z,4.30
2017-11-25T16:57:05.532Z,4.25
2017-11-25T16:59:32.147Z,3.83
2017-11-25T17:01:58.808Z,4.32
2017-11-25T17:04:25.434Z,3.85
2017-11-25T17:06:52.051Z,4.68
2017-11-25T17:09:18.680Z,4.68
2017-11-25T17:11:45.293Z,4.07
2017-11-25T17:14:11.908Z,4.50
2017-11-25T17:16:39.287Z,4.20
2017-11-25T17:19:06.063Z,4.47
2017-11-25T17:21:33.079Z,6.55
2017-11-25T17:24:00.092Z,4.50
2017-11-25T17:26:27.663Z,4.00
2017-11-25T17:28:55.659Z,4.30
2017-11-25T17:31:22.332Z,4.50
2017-11-25T17:33:50.815Z,5.50
2017-11-25T17:36:18.039Z,3.87
2017-11-25T17:38:46.934Z,4.30
2017-11-25T17:41:13.624Z,4.10
2017-11-25T17:43:40.409Z,4.55
2017-11-25T17:46:07.888Z,4.87
2017-11-25T17:48:35.331Z,5.07
2017-11-25T17:51:02.069Z,4.45
2017-11-25T17:53:28.676Z,4.50
2017-11-25T17:55:55.275Z,4.12
2017-11-25T17:58:21.948Z,4.45
2017-11-25T18:00:48.555Z,4.65
2017-11-25T18:03:15.220Z,4.57
2017-11-25T18:05:41.839Z,4.62
2017-11-25T18:08:08.452Z,4.50
2017-11-25T18:10:35.067Z,5.07
2017-11-25T18:13:01.682Z,6.07
2017-11-25T18:15:28.279Z,4.57
2017-11-25T18:17:54.911Z,6.97
2017-11-25T18:20:21.596Z,4.93
2017-11-25T18:22:48.200Z,5.03
2017-11-25T18:25:14.827Z,5.05
2017-11-25T18:27:41.452Z,5.20
2017-11-25T18:30:08.060Z,5.45
2017-11-25T18:32:34.680Z,5.12
2017-11-25T18:35:01.287Z,5.72
2017-11-25T18:37:27.898Z,4.90
2017-11-25T18:39:54.594Z,5.00
2017-11-25T18:42:21.192Z,6.90
2017-11-25T18:44:47.810Z,5.12
2017-11-25T18:47:14.436Z,8.25
2017-11-25T18:49:41.041Z,4.30
2017-11-25T18:52:07.646Z,5.55
2017-11-25T18:54:34.274Z,10.10
2017-11-25T18:57:00.897Z,7.93
2017-11-25T18:59:27.531Z,4.78
2017-11-25T19:01:54.159Z,4.80
2017-11-25T19:04:20.771Z,5.87
2017-11-25T19:06:47.371Z,6.37
2017-11-25T19:09:14.000Z,5.32
2017-11-25T19:11:40.636Z,4.80
2017-11-25T19:14:07.253Z,4.60
2017-11-25T19:16:33.884Z,5.32
2017-11-25T19:19:00.507Z,4.40
2017-11-25T19:21:27.124Z,4.72
2017-11-25T19:23:53.754Z,4.80
2017-11-25T19:26:20.389Z,4.75
2017-11-25T19:28:47.000Z,4.15
2017-11-25T19:31:13.620Z,6.20
2017-11-25T19:33:40.234Z,5.90
2017-11-25T19:36:06.861Z,4.53
2017-11-25T19:38:33.469Z,5.05
2017-11-25T19:41:00.075Z,3.90
2017-11-25T19:43:26.708Z,4.65
2017-11-25T19:45:53.323Z,5.35
2017-11-25T19:48:19.941Z,4.30
2017-11-25T19:50:46.555Z,4.40
2017-11-25T19:53:13.160Z,5.95
2017-11-25T19:55:39.812Z,4.70
2017-11-25T19:58:06.459Z,5.50
2017-11-25T20:00:33.067Z,4.60
2017-11-25T20:02:59.680Z,4.40
2017-11-25T20:05:26.307Z,4.40
2017-11-25T20:07:52.981Z,4.50
2017-11-25T20:10:19.616Z,4.32
2017-11-25T20:12:46.326Z,4.35
2017-11-25T20:15:13.025Z,4.87
2017-11-25T20:17:39.647Z,4.60
2017-11-25T20:20:06.251Z,4.60
2017-11-25T20:22:32.939Z,3.12
2017-11-25T20:24:59.578Z,4.78
2017-11-25T20:27:26.188Z,4.87
2017-11-25T20:29:52.796Z,4.75
2017-11-25T20:32:19.437Z,4.85
2017-11-25T20:34:46.053Z,4.50
2017-11-25T20:37:12.664Z,4.60
2017-11-25T20:39:39.303Z,4.95
2017-11-25T20:42:05.912Z,4.20
2017-11-25T20:44:32.587Z,4.43
2017-11-25T20:46:59.224Z,4.75
2017-11-25T20:49:25.827Z,4.40
2017-11-25T20:51:52.435Z,4.50
2017-11-25T20:54:19.056Z,4.40
2017-11-25T20:56:45.686Z,4.60
2017-11-25T20:59:12.290Z,4.60
2017-11-25T21:01:38.913Z,4.80
2017-11-25T21:04:05.607Z,4.32
2017-11-25T21:06:32.216Z,4.93
2017-11-25T21:08:58.843Z,5.10
2017-11-25T21:11:25.471Z,4.30
2017-11-25T21:13:52.174Z,4.62
2017-11-25T21:16:18.899Z,4.10
2017-11-25T21:18:45.507Z,4.20
2017-11-25T21:21:12.120Z,4.10
2017-11-25T21:23:38.831Z,4.18
2017-11-25T21:26:05.436Z,4.40
2017-11-25T21:28:32.054Z,4.75
2017-11-25T21:30:58.663Z,4.95
2017-11-25T21:33:25.275Z,5.00
2017-11-25T21:35:51.915Z,4.07
2017-11-25T21:38:18.518Z,5.87
2017-11-25T21:40:45.136Z,5.00
2017-11-25T21:43:11.758Z,5.07
2017-11-25T21:45:38.468Z,5.10
2017-11-25T21:48:05.114Z,4.97
2017-11-25T21:50:31.712Z,5.18
2017-11-25T21:52:58.324Z,4.80
2017-11-25T21:55:24.963Z,5.20
2017-11-25T21:57:51.580Z,5.10
2017-11-25T22:00:18.187Z,4.90
2017-11-25T22:02:44.843Z,5.68
2017-11-25T22:05:11.450Z,5.40
2017-11-25T22:07:38.119Z,5.00
2017-11-25T22:10:04.748Z,4.95
2017-11-25T22:12:31.358Z,5.12
2017-11-25T22:14:58.040Z,5.20
2017-11-25T22:17:24.639Z,4.80
2017-11-25T22:19:51.243Z,5.05
2017-11-25T22:22:17.867Z,5.78
2017-11-25T22:24:44.491Z,5.53
2017-11-25T22:27:11.104Z,6.57
2017-11-25T22:29:37.724Z,4.20
2017-11-25T22:32:04.327Z,6.90
2017-11-25T22:34:30.944Z,5.95
2017-11-25T22:36:57.555Z,6.03
2017-11-25T22:39:24.170Z,5.80
2017-11-25T22:41:50.792Z,8.80
2017-11-25T22:44:17.504Z,6.10
2017-11-25T22:46:44.103Z,6.30
2017-11-25T22:49:10.724Z,7.43
2017-11-25T22:51:37.427Z,7.00
2017-11-25T22:54:04.044Z,6.65
2017-11-25T22:56:30.662Z,7.45
2017-11-25T22:58:57.334Z,6.43
2017-11-25T23:01:23.956Z,6.75
2017-11-25T23:03:50.567Z,5.32
2017-11-25T23:06:17.256Z,6.22
2017-11-25T23:08:43.908Z,7.43
2017-11-25T23:11:10.507Z,6.45
2017-11-25T23:13:37.167Z,6.43
2017-11-25T23:16:03.799Z,6.05
2017-11-25T23:18:30.407Z,6.85
2017-11-25T23:20:57.023Z,7.50
2017-11-25T23:23:23.720Z,7.75
2017-11-25T23:25:50.322Z,7.25
2017-11-25T23:28:16.928Z,7.62
2017-11-25T23:30:43.542Z,6.87
2017-11-25T23:33:10.143Z,7.70
2017-11-25T23:35:36.819Z,8.00
2017-11-25T23:38:03.444Z,7.57
2017-11-25T23:40:30.047Z,6.95
2017-11-25T23:42:56.656Z,7.70
2017-11-25T23:45:23.275Z,7.78
2017-11-25T23:47:49.892Z,6.97
2017-11-25T23:50:16.508Z,9.20
2017-11-25T23:52:43.119Z,7.80
2017-11-25T23:55:09.723Z,7.40
2017-11-25T23:57:36.343Z,6.87
